Time;durP1;ratioP1;P1;durP2;ratioP2;P2;SDS_P1;SDS_P2;PMS_P1;PMS_P2;Temp;Humidity;BMP_temperature;BMP_pressure;BME280_temperature;BME280_humidity;BME280_pressure;Samples;Min_cycle;Max_cycle;Signal;HPM_P1;HPM_P2
2023/12/10 00:01:01;;;;;;;10.93;2.63;;;11.60;99.90;;;;;;5071209;28;20659;-54
2023/12/10 00:03:28;;;;;;;10.77;2.70;;;11.70;99.90;;;;;;5071312;28;20197;-56
2023/12/10 00:05:55;;;;;;;11.57;2.23;;;11.70;99.90;;;;;;5055160;28;20217;-55
2023/12/10 00:08:23;;;;;;;7.73;2.17;;;11.70;99.90;;;;;;5071084;28;20216;-54
2023/12/10 00:10:49;;;;;;;12.70;2.83;;;11.70;99.90;;;;;;5071190;28;20209;-54
2023/12/10 00:13:16;;;;;;;12.77;3.10;;;11.60;99.90;;;;;;5071099;28;20208;-56
2023/12/10 00:15:43;;;;;;;9.07;2.43;;;11.60;99.90;;;;;;5070801;28;20221;-54
2023/12/10 00:18:09;;;;;;;12.03;2.67;;;11.60;99.90;;;;;;5071183;28;20219;-54
2023/12/10 00:20:36;;;;;;;11.80;2.87;;;11.50;99.90;;;;;;5075436;28;20228;-57
2023/12/10 00:23:03;;;;;;;13.67;2.73;;;11.50;99.90;;;;;;5077820;28;20196;-55
2023/12/10 00:25:31;;;;;;;12.30;3.13;;;11.50;99.90;;;;;;5077491;28;20643;-57
2023/12/10 00:27:58;;;;;;;12.20;2.73;;;11.50;99.90;;;;;;5077505;28;20445;-54
2023/12/10 00:30:25;;;;;;;13.33;2.93;;;11.50;99.90;;;;;;5078030;28;20265;-55
2023/12/10 00:32:53;;;;;;;13.50;3.20;;;11.50;99.90;;;;;;5077838;28;20213;-54
2023/12/10 00:35:19;;;;;;;12.97;3.37;;;11.50;99.90;;;;;;5077728;28;20256;-55
2023/12/10 00:37:46;;;;;;;12.80;3.60;;;11.40;99.90;;;;;;5077498;28;20412;-55
2023/12/10 00:40:14;;;;;;;13.47;2.80;;;11.40;99.90;;;;;;5077637;28;20258;-56
2023/12/10 00:42:43;;;;;;;17.57;4.00;;;11.50;99.90;;;;;;5077201;28;20262;-57
2023/12/10 00:45:10;;;;;;;17.03;3.70;;;11.40;99.90;;;;;;5077667;28;20224;-55
2023/12/10 00:47:37;;;;;;;18.93;3.60;;;11.50;99.90;;;;;;5077178;28;20296;-55
2023/12/10 00:50:04;;;;;;;14.63;4.10;;;11.50;99.90;;;;;;5077688;28;20197;-54
2023/12/10 00:52:31;;;;;;;17.53;3.87;;;11.60;99.90;;;;;;5077249;28;20204;-58
2023/12/10 00:54:57;;;;;;;18.90;4.10;;;11.60;99.90;;;;;;5077447;28;20224;-55
2023/12/10 00:57:24;;;;;;;13.27;3.33;;;11.60;99.90;;;;;;5077455;28;20205;-54
2023/12/10 00:59:52;;;;;;;20.93;3.97;;;11.60;99.90;;;;;;5077342;28;20201;-55
2023/12/10 01:02:20;;;;;;;16.83;4.03;;;11.60;99.90;;;;;;5077371;28;20197;-55
2023/12/10 01:04:46;;;;;;;14.57;3.40;;;11.50;99.90;;;;;;5077127;28;20717;-55
2023/12/10 01:07:13;;;;;;;15.77;3.73;;;11.60;99.90;;;;;;5077692;28;20266;-56
2023/12/10 01:09:40;;;;;;;19.03;3.73;;;11.70;99.90;;;;;;5077057;28;20280;-56
2023/12/10 01:12:07;;;;;;;26.97;4.97;;;11.60;99.90;;;;;;5077438;28;20258;-55
2023/12/10 01:14:34;;;;;;;19.10;4.07;;;11.60;99.90;;;;;;5077184;28;20200;-55
2023/12/10 01:17:02;;;;;;;20.30;4.10;;;11.60;99.90;;;;;;5077489;28;20197;-54
2023/12/10 01:19:29;;;;;;;16.30;3.67;;;11.60;99.90;;;;;;5077149;28;20303;-55
2023/12/10 01:21:55;;;;;;;15.47;4.20;;;11.60;99.90;;;;;;5077129;28;20618;-56
2023/12/10 01:24:22;;;;;;;20.97;4.00;;;11.60;99.90;;;;;;5077157;28;20674;-54
2023/12/10 01:26:49;;;;;;;19.20;3.90;;;11.60;99.90;;;;;;5077132;28;20224;-54
2023/12/10 01:29:16;;;;;;;24.07;4.80;;;11.50;99.90;;;;;;5077189;28;20201;-56
2023/12/10 01:31:42;;;;;;;17.23;4.37;;;11.60;99.90;;;;;;5075203;28;20284;-54
2023/12/10 01:34:10;;;;;;;20.50;4.47;;;11.50;99.90;;;;;;5074013;28;20336;-55
2023/12/10 01:36:37;;;;;;;19.33;4.20;;;11.60;99.90;;;;;;5073655;28;20232;-55
2023/12/10 01:39:04;;;;;;;20.43;4.13;;;11.50;99.90;;;;;;5073820;28;20291;-57
2023/12/10 01:41:31;;;;;;;20.10;4.63;;;11.40;99.90;;;;;;5074179;28;20232;-56
2023/12/10 01:43:57;;;;;;;28.47;4.57;;;11.30;99.90;;;;;;5057752;28;20201;-53
2023/12/10 01:46:24;;;;;;;20.33;4.50;;;11.20;99.90;;;;;;5073784;28;20225;-55
2023/12/10 01:48:55;;;;;;;17.70;4.00;;;11.20;99.90;;;;;;5073508;28;20710;-54
2023/12/10 01:51:24;;;;;;;20.03;4.50;;;11.20;99.90;;;;;;5073462;28;20281;-56
2023/12/10 01:53:50;;;;;;;23.87;4.73;;;11.10;99.90;;;;;;5073634;28;20676;-54
2023/12/10 01:56:17;;;;;;;24.20;5.47;;;11.20;99.90;;;;;;5073397;28;20710;-54
2023/12/10 01:58:44;;;;;;;17.10;4.03;;;11.20;99.90;;;;;;5073536;28;20197;-56
2023/12/10 02:01:11;;;;;;;16.27;4.33;;;11.20;99.90;;;;;;5073342;28;20230;-55
2023/12/10 02:03:38;;;;;;;22.17;5.00;;;11.20;99.90;;;;;;5073278;28;20205;-53
2023/12/10 02:06:05;;;;;;;17.33;3.83;;;11.30;99.90;;;;;;5073301;28;20217;-56
2023/12/10 02:08:33;;;;;;;23.23;4.97;;;11.20;99.90;;;;;;5073274;28;20225;-54
2023/12/10 02:11:00;;;;;;;18.50;3.90;;;11.20;99.90;;;;;;5057494;28;20235;-54
2023/12/10 02:13:27;;;;;;;17.17;3.80;;;11.30;99.90;;;;;;5073119;28;20684;-55
2023/12/10 02:15:54;;;;;;;22.10;4.13;;;11.40;99.90;;;;;;5073210;28;20217;-54
2023/12/10 02:18:21;;;;;;;20.53;4.63;;;11.40;99.90;;;;;;5073047;28;20242;-55
2023/12/10 02:20:48;;;;;;;20.23;4.43;;;11.50;99.90;;;;;;5073045;28;20212;-54
2023/12/10 02:23:27;;;;;;;18.27;4.13;;;11.50;99.90;;;;;;5073157;28;20259;-54
2023/12/10 02:25:56;;;;;;;18.03;4.20;;;11.60;99.90;;;;;;5072783;28;20323;-54
2023/12/10 02:28:23;;;;;;;21.33;4.27;;;11.60;99.90;;;;;;5072774;28;20221;-58
2023/12/10 02:30:50;;;;;;;20.93;4.60;;;11.70;99.90;;;;;;5072915;28;20278;-55
2023/12/10 02:33:16;;;;;;;14.07;3.67;;;11.80;99.90;;;;;;5073143;28;20236;-54
2023/12/10 02:35:43;;;;;;;23.20;4.00;;;11.80;99.90;;;;;;5072883;28;20221;-55
2023/12/10 02:38:10;;;;;;;16.07;4.27;;;11.90;99.90;;;;;;5072763;28;20201;-54
2023/12/10 02:40:36;;;;;;;18.20;3.60;;;11.90;99.90;;;;;;5072628;28;20216;-54
2023/12/10 02:43:05;;;;;;;10.23;3.20;;;11.70;99.90;;;;;;5072159;28;20201;-57
2023/12/10 02:45:31;;;;;;;9.20;2.50;;;11.30;99.90;;;;;;5072367;28;20228;-54
2023/12/10 02:47:58;;;;;;;9.77;2.43;;;11.10;99.90;;;;;;5072219;28;20638;-55
2023/12/10 02:50:25;;;;;;;12.63;2.37;;;11.00;99.90;;;;;;5072505;28;20225;-57
2023/12/10 02:52:52;;;;;;;6.60;1.70;;;10.80;99.90;;;;;;5072548;28;20622;-54
2023/12/10 02:55:18;;;;;;;4.23;1.30;;;10.60;99.90;;;;;;5072227;28;20706;-56
2023/12/10 02:57:45;;;;;;;5.83;1.47;;;10.50;99.90;;;;;;5071890;28;20683;-57
2023/12/10 03:00:15;;;;;;;4.80;1.30;;;10.30;99.90;;;;;;5072249;28;20670;-56
2023/12/10 03:02:42;;;;;;;4.97;1.27;;;10.30;99.90;;;;;;5072633;28;20575;-55
2023/12/10 03:05:09;;;;;;;6.60;1.40;;;10.10;99.90;;;;;;5072394;28;20253;-54
2023/12/10 03:07:35;;;;;;;3.40;1.13;;;10.00;99.90;;;;;;5072243;28;20294;-55
2023/12/10 03:10:02;;;;;;;4.60;1.43;;;10.10;99.90;;;;;;5072277;28;20205;-52
2023/12/10 03:12:29;;;;;;;5.87;1.43;;;9.90;99.90;;;;;;5071964;28;20582;-53
2023/12/10 03:14:56;;;;;;;9.33;2.07;;;9.80;99.90;;;;;;5071855;28;20228;-54
2023/12/10 03:17:24;;;;;;;8.03;2.00;;;9.80;99.90;;;;;;5072247;28;20267;-53
2023/12/10 03:19:50;;;;;;;14.20;2.70;;;9.80;99.90;;;;;;5071913;28;20212;-56
2023/12/10 03:22:17;;;;;;;8.63;2.30;;;9.80;99.90;;;;;;5072005;28;20205;-54
2023/12/10 03:24:44;;;;;;;11.03;2.43;;;9.70;99.90;;;;;;5071548;28;20232;-57
2023/12/10 03:27:10;;;;;;;10.83;2.43;;;9.70;99.90;;;;;;5071728;28;20201;-55
2023/12/10 03:29:37;;;;;;;8.90;2.40;;;9.60;99.90;;;;;;5071644;28;20204;-53
2023/12/10 03:32:04;;;;;;;14.00;2.77;;;9.40;99.90;;;;;;5071934;28;20250;-53
2023/12/10 03:34:32;;;;;;;9.10;2.10;;;9.20;99.90;;;;;;5071708;28;20231;-54
2023/12/10 03:36:59;;;;;;;9.70;2.20;;;9.20;99.90;;;;;;5071991;28;20208;-54
2023/12/10 03:39:26;;;;;;;11.40;2.40;;;9.20;99.90;;;;;;5071589;28;20197;-54
2023/12/10 03:41:53;;;;;;;11.43;2.37;;;9.20;99.90;;;;;;5071505;28;20204;-56
2023/12/10 03:44:20;;;;;;;8.30;2.60;;;9.10;99.90;;;;;;5071963;28;20624;-54
2023/12/10 03:46:46;;;;;;;9.13;2.40;;;9.00;99.90;;;;;;5071736;28;20590;-55
2023/12/10 03:49:13;;;;;;;7.93;2.13;;;9.00;99.90;;;;;;5071364;28;20706;-54
2023/12/10 03:51:41;;;;;;;12.70;2.63;;;9.00;99.90;;;;;;5071321;28;20205;-54
2023/12/10 03:54:08;;;;;;;11.33;2.60;;;9.10;99.90;;;;;;5070969;28;20217;-54
2023/12/10 03:56:34;;;;;;;10.70;2.57;;;9.20;99.90;;;;;;5070983;28;20254;-56
2023/12/10 03:59:01;;;;;;;11.13;2.80;;;9.30;99.90;;;;;;5055045;28;20227;-54
2023/12/10 04:01:28;;;;;;;12.20;3.00;;;9.30;99.90;;;;;;5071422;28;20292;-55
2023/12/10 04:03:55;;;;;;;14.60;2.70;;;9.40;99.90;;;;;;5071284;28;20212;-57
2023/12/10 04:06:22;;;;;;;6.83;2.33;;;9.50;99.90;;;;;;5071321;28;20225;-53
2023/12/10 04:08:50;;;;;;;9.70;2.57;;;9.50;99.90;;;;;;5070824;28;20252;-54
2023/12/10 04:11:22;;;;;;;9.87;2.33;;;9.60;99.90;;;;;;5071441;28;20208;-54
2023/12/10 04:13:49;;;;;;;10.63;2.50;;;9.70;99.90;;;;;;5071162;28;20700;-55
2023/12/10 04:16:24;;;;;;;12.77;2.80;;;9.90;99.90;;;;;;5071043;28;20229;-54
2023/12/10 04:18:51;;;;;;;13.03;2.90;;;10.00;99.90;;;;;;5070820;28;20679;-57
2023/12/10 04:21:19;;;;;;;8.93;2.67;;;10.00;99.90;;;;;;5071584;28;20259;-54
2023/12/10 04:23:46;;;;;;;10.40;2.70;;;10.00;99.90;;;;;;5071122;28;20211;-55
2023/12/10 04:26:14;;;;;;;11.43;3.10;;;10.00;99.90;;;;;;5094206;22;20232;-56
2023/12/10 04:28:41;;;;;;;14.00;3.13;;;10.00;99.90;;;;;;5062456;28;20229;-58
2023/12/10 04:31:08;;;;;;;9.10;2.97;;;10.00;99.90;;;;;;5062532;28;20742;-57
2023/12/10 04:33:35;;;;;;;12.07;3.43;;;10.10;99.90;;;;;;5062624;28;20262;-57
2023/12/10 04:36:02;;;;;;;13.93;2.83;;;10.20;99.90;;;;;;5058967;28;20271;-57
2023/12/10 04:38:29;;;;;;;10.33;2.83;;;10.30;99.90;;;;;;5059218;28;20198;-58
2023/12/10 04:40:56;;;;;;;9.57;2.73;;;10.30;99.90;;;;;;5061780;28;20205;-58
2023/12/10 04:43:25;;;;;;;8.53;2.30;;;10.40;99.90;;;;;;5062602;28;20205;-58
2023/12/10 04:45:51;;;;;;;14.37;3.30;;;10.50;99.90;;;;;;5060241;28;20263;-58
2023/12/10 04:48:18;;;;;;;10.80;2.80;;;10.60;99.90;;;;;;5058871;28;20218;-56
2023/12/10 04:50:45;;;;;;;10.73;2.60;;;10.60;99.90;;;;;;5060051;28;20206;-57
2023/12/10 04:53:12;;;;;;;13.73;2.90;;;10.60;99.90;;;;;;5062362;28;20214;-56
2023/12/10 04:55:38;;;;;;;9.57;2.40;;;10.70;99.90;;;;;;5062247;28;20647;-56
2023/12/10 04:58:05;;;;;;;14.13;3.40;;;10.70;99.90;;;;;;5058912;28;20202;-56
2023/12/10 05:00:33;;;;;;;12.57;3.00;;;10.70;99.90;;;;;;5058882;28;20588;-57
2023/12/10 05:03:00;;;;;;;14.57;3.57;;;10.70;99.90;;;;;;5061812;28;20212;-57
2023/12/10 05:05:27;;;;;;;12.57;2.60;;;10.80;99.90;;;;;;5062308;28;20231;-58
2023/12/10 05:07:54;;;;;;;10.47;2.77;;;10.80;99.90;;;;;;5063682;28;20209;-59
2023/12/10 05:10:21;;;;;;;9.10;2.73;;;10.70;99.90;;;;;;5062772;28;20209;-58
2023/12/10 05:12:48;;;;;;;12.07;2.77;;;10.70;99.90;;;;;;5063899;28;20210;-58
2023/12/10 05:15:15;;;;;;;11.50;2.67;;;10.70;99.90;;;;;;5066003;28;20297;-57
2023/12/10 05:17:43;;;;;;;9.03;2.80;;;10.80;99.90;;;;;;5065101;28;20201;-58
2023/12/10 05:20:10;;;;;;;9.93;2.80;;;10.80;99.90;;;;;;5062607;28;20209;-57
2023/12/10 05:22:37;;;;;;;10.33;2.87;;;10.80;99.90;;;;;;5062243;28;20213;-58
2023/12/10 05:25:07;;;;;;;12.53;3.03;;;10.80;99.90;;;;;;5062465;28;20213;-56
2023/12/10 05:27:34;;;;;;;8.73;2.77;;;10.80;99.90;;;;;;5062451;28;20628;-57
2023/12/10 05:30:01;;;;;;;11.87;2.57;;;10.80;99.90;;;;;;5065004;28;20221;-57
2023/12/10 05:32:29;;;;;;;13.33;3.00;;;10.90;99.90;;;;;;5065906;28;20647;-57
2023/12/10 05:34:57;;;;;;;14.57;2.77;;;10.90;99.90;;;;;;5063568;28;20232;-58
2023/12/10 05:37:23;;;;;;;11.40;3.17;;;10.90;99.90;;;;;;5062212;28;20212;-58
2023/12/10 05:39:50;;;;;;;11.27;2.27;;;10.90;99.90;;;;;;5063520;28;20209;-58
2023/12/10 05:42:17;;;;;;;13.60;3.20;;;11.00;99.90;;;;;;5065424;28;20254;-58
2023/12/10 05:44:44;;;;;;;13.00;2.53;;;10.90;99.90;;;;;;5064552;28;20255;-56
2023/12/10 05:47:10;;;;;;;10.33;2.10;;;10.90;99.90;;;;;;5062134;28;20240;-57
2023/12/10 05:49:37;;;;;;;14.27;3.27;;;10.90;99.90;;;;;;5061763;28;20221;-57
2023/12/10 05:52:07;;;;;;;10.70;2.93;;;10.80;99.90;;;;;;5065596;28;20209;-57
2023/12/10 05:54:34;;;;;;;11.47;2.87;;;10.90;99.90;;;;;;5065691;28;20201;-58
2023/12/10 05:57:00;;;;;;;11.20;2.70;;;10.90;99.90;;;;;;5062210;28;20426;-56
2023/12/10 05:59:27;;;;;;;10.30;2.93;;;11.00;99.90;;;;;;5061492;28;20232;-57
2023/12/10 06:01:54;;;;;;;11.37;2.83;;;11.00;99.90;;;;;;5063309;28;20205;-57
2023/12/10 06:04:20;;;;;;;8.17;2.90;;;11.00;99.90;;;;;;5065207;28;20251;-56
2023/12/10 06:06:47;;;;;;;12.30;2.83;;;11.00;99.90;;;;;;5063775;28;20220;-57
2023/12/10 06:09:15;;;;;;;12.13;2.80;;;10.90;99.90;;;;;;5061208;28;20222;-57
2023/12/10 06:11:43;;;;;;;13.20;2.80;;;10.90;99.90;;;;;;5061465;28;20255;-57
2023/12/10 06:14:09;;;;;;;9.60;2.43;;;10.90;99.90;;;;;;5065091;28;20208;-57
2023/12/10 06:16:36;;;;;;;11.83;3.20;;;11.00;99.90;;;;;;5064790;28;20697;-57
2023/12/10 06:19:03;;;;;;;12.67;2.60;;;10.90;99.90;;;;;;5060470;28;20255;-56
2023/12/10 06:21:32;;;;;;;7.90;2.90;;;10.90;99.90;;;;;;5061295;28;20376;-57
2023/12/10 06:23:58;;;;;;;9.93;2.70;;;10.90;99.90;;;;;;5063726;28;20209;-57
2023/12/10 06:26:26;;;;;;;15.97;3.53;;;10.90;99.90;;;;;;5064524;28;20289;-56
2023/12/10 06:28:53;;;;;;;12.07;2.77;;;10.80;99.90;;;;;;5062644;28;20221;-56
2023/12/10 06:31:20;;;;;;;11.13;2.57;;;10.90;99.90;;;;;;5061256;28;20205;-57
2023/12/10 06:33:47;;;;;;;10.80;2.40;;;10.80;99.90;;;;;;5061938;28;20201;-56
2023/12/10 06:36:13;;;;;;;11.20;2.30;;;10.80;99.90;;;;;;5064438;28;20233;-58
2023/12/10 06:38:40;;;;;;;10.37;2.33;;;10.80;99.90;;;;;;5064244;28;20197;-56
2023/12/10 06:41:07;;;;;;;8.60;2.43;;;10.80;99.90;;;;;;5068981;28;20251;-59
2023/12/10 06:43:35;;;;;;;8.97;2.30;;;10.80;99.90;;;;;;5061022;28;20205;-58
2023/12/10 06:46:02;;;;;;;8.47;2.30;;;10.80;99.90;;;;;;5063545;28;20324;-57
2023/12/10 06:48:28;;;;;;;11.80;2.73;;;10.90;99.90;;;;;;5063905;28;20699;-57
2023/12/10 06:50:55;;;;;;;11.50;2.30;;;10.90;99.90;;;;;;5062239;28;20208;-57
2023/12/10 06:53:22;;;;;;;10.83;2.87;;;10.90;99.90;;;;;;5060453;28;20209;-58
2023/12/10 06:55:49;;;;;;;10.03;2.37;;;10.90;99.90;;;;;;5061627;28;20316;-56
2023/12/10 06:58:16;;;;;;;11.87;2.53;;;10.80;99.90;;;;;;5064133;28;20569;-57
2023/12/10 07:00:44;;;;;;;13.07;2.67;;;10.80;99.90;;;;;;5063639;28;20201;-57
2023/12/10 07:03:11;;;;;;;12.93;2.67;;;10.80;99.90;;;;;;5060589;28;20198;-56
2023/12/10 07:05:37;;;;;;;10.93;2.37;;;10.80;99.90;;;;;;5060395;28;20221;-56
2023/12/10 07:08:05;;;;;;;11.13;2.23;;;10.90;99.90;;;;;;5063094;28;20670;-57
2023/12/10 07:10:31;;;;;;;11.40;3.03;;;10.90;99.90;;;;;;5063991;28;20221;-57
2023/12/10 07:12:59;;;;;;;11.37;3.00;;;10.90;99.90;;;;;;5061336;28;20208;-57
2023/12/10 07:15:26;;;;;;;9.77;2.33;;;10.90;99.90;;;;;;5060209;28;20225;-56
2023/12/10 07:17:54;;;;;;;11.80;2.73;;;11.00;99.90;;;;;;5061553;28;20210;-57
2023/12/10 07:20:20;;;;;;;9.27;2.20;;;10.90;99.90;;;;;;5063528;28;20201;-57
2023/12/10 07:22:47;;;;;;;10.53;2.77;;;10.90;99.90;;;;;;5062448;28;20201;-57
2023/12/10 07:25:14;;;;;;;14.00;2.90;;;10.80;99.90;;;;;;5059863;28;20649;-57
2023/12/10 07:27:41;;;;;;;11.17;2.33;;;10.70;99.90;;;;;;5059993;28;20288;-57
2023/12/10 07:30:09;;;;;;;9.60;2.70;;;10.80;99.90;;;;;;5063567;28;20221;-56
2023/12/10 07:32:35;;;;;;;9.50;2.80;;;10.90;99.90;;;;;;5063249;28;20205;-56
2023/12/10 07:35:04;;;;;;;11.83;2.43;;;11.00;99.90;;;;;;5060175;28;20303;-57
2023/12/10 07:37:31;;;;;;;9.43;2.27;;;11.00;99.90;;;;;;5059985;28;20233;-58
2023/12/10 07:39:58;;;;;;;9.43;2.83;;;11.00;99.90;;;;;;5061527;28;20209;-56
2023/12/10 07:42:24;;;;;;;12.60;2.20;;;11.00;99.90;;;;;;5063533;28;20217;-57
2023/12/10 07:44:51;;;;;;;11.33;2.90;;;11.10;99.90;;;;;;5061735;28;20212;-57
2023/12/10 07:47:18;;;;;;;9.50;2.37;;;11.10;99.90;;;;;;5059789;28;20205;-57
2023/12/10 07:49:44;;;;;;;8.23;2.53;;;11.00;99.90;;;;;;5059323;28;20275;-57
2023/12/10 07:52:12;;;;;;;10.53;2.30;;;11.00;99.90;;;;;;5063231;28;20204;-58
2023/12/10 07:54:39;;;;;;;11.67;3.00;;;11.00;99.90;;;;;;5063174;28;20209;-57
2023/12/10 07:57:06;;;;;;;13.00;2.63;;;11.10;99.90;;;;;;5059782;28;20248;-57
2023/12/10 07:59:32;;;;;;;15.10;3.53;;;11.20;99.90;;;;;;5059453;28;20682;-57
2023/12/10 08:01:59;;;;;;;9.00;2.23;;;11.00;99.90;;;;;;5061604;28;20244;-57
2023/12/10 08:04:26;;;;;;;11.87;2.47;;;11.10;99.90;;;;;;5063025;28;20666;-58
2023/12/10 08:06:52;;;;;;;11.27;2.47;;;11.10;99.90;;;;;;5061429;28;20225;-57
2023/12/10 08:09:21;;;;;;;8.17;2.33;;;11.10;99.90;;;;;;5059466;28;20637;-58
2023/12/10 08:11:48;;;;;;;7.50;2.20;;;11.20;99.90;;;;;;5060049;28;20215;-57
2023/12/10 08:14:15;;;;;;;8.57;2.30;;;11.30;99.90;;;;;;5062948;28;20330;-57
2023/12/10 08:16:41;;;;;;;11.37;3.10;;;11.30;99.90;;;;;;5062826;28;20224;-58
2023/12/10 08:19:08;;;;;;;13.27;2.70;;;11.40;99.90;;;;;;5059086;28;20588;-57
2023/12/10 08:21:35;;;;;;;11.60;2.63;;;11.40;99.90;;;;;;5059605;28;20228;-57
2023/12/10 08:24:01;;;;;;;12.63;3.03;;;11.40;99.90;;;;;;5061714;28;20215;-57
2023/12/10 08:26:29;;;;;;;9.70;2.43;;;11.40;99.90;;;;;;5062576;28;20228;-58
2023/12/10 08:28:56;;;;;;;8.33;2.00;;;11.50;99.90;;;;;;5060611;28;20677;-57
2023/12/10 08:31:22;;;;;;;7.80;2.50;;;11.60;99.90;;;;;;5059005;28;20201;-57
2023/12/10 08:33:49;;;;;;;11.07;3.10;;;11.60;99.90;;;;;;5060002;28;20208;-57
2023/12/10 08:36:16;;;;;;;12.37;2.57;;;11.70;99.90;;;;;;5062646;28;20224;-58
2023/12/10 08:38:42;;;;;;;7.97;2.37;;;11.80;99.90;;;;;;5062532;28;20205;-57
2023/12/10 08:41:09;;;;;;;9.57;3.57;;;12.00;99.90;;;;;;5063600;28;20204;-57
2023/12/10 08:43:38;;;;;;;9.80;2.77;;;12.10;99.90;;;;;;5066632;28;20203;-56
2023/12/10 08:46:05;;;;;;;10.37;3.10;;;12.20;99.90;;;;;;5063414;28;20260;-56
2023/12/10 08:48:32;;;;;;;11.97;4.33;;;12.30;99.90;;;;;;5063010;28;20285;-56
2023/12/10 08:50:58;;;;;;;12.73;5.13;;;12.40;99.90;;;;;;5064777;28;20236;-57
2023/12/10 08:53:25;;;;;;;11.67;3.30;;;12.50;99.90;;;;;;5066213;28;20652;-56
2023/12/10 08:55:52;;;;;;;12.47;2.87;;;12.60;99.90;;;;;;5065134;28;20713;-56
2023/12/10 08:58:19;;;;;;;12.47;3.33;;;12.70;99.90;;;;;;5062497;28;20208;-59
2023/12/10 09:00:47;;;;;;;9.57;3.10;;;12.70;99.90;;;;;;5062660;28;20247;-62
2023/12/10 09:03:14;;;;;;;11.20;3.10;;;12.70;99.90;;;;;;5066265;28;20197;-58
2023/12/10 09:05:41;;;;;;;11.83;3.43;;;12.60;99.90;;;;;;5066271;28;20266;-58
2023/12/10 09:08:08;;;;;;;11.03;3.40;;;12.60;99.90;;;;;;5062872;28;20217;-58
2023/12/10 09:10:35;;;;;;;11.13;2.47;;;12.70;99.90;;;;;;5062567;28;20699;-58
2023/12/10 09:13:01;;;;;;;9.80;2.63;;;12.80;99.90;;;;;;5064643;28;20210;-59
2023/12/10 09:15:28;;;;;;;13.70;3.43;;;12.70;99.90;;;;;;5066027;28;20242;-59
2023/12/10 09:17:56;;;;;;;8.07;2.43;;;12.60;99.90;;;;;;5064342;28;20694;-59
2023/12/10 09:20:23;;;;;;;21.17;10.43;;;12.60;99.90;;;;;;5062530;28;20683;-59
2023/12/10 09:22:49;;;;;;;12.53;4.60;;;12.70;99.90;;;;;;5062795;28;20206;-59
2023/12/10 09:25:16;;;;;;;6.93;2.60;;;12.70;99.90;;;;;;5065578;28;20244;-58
2023/12/10 09:27:44;;;;;;;14.50;3.13;;;12.70;99.90;;;;;;5065569;28;20219;-57
2023/12/10 09:30:11;;;;;;;13.37;3.00;;;12.90;99.90;;;;;;5070724;28;20222;-59
2023/12/10 09:32:39;;;;;;;10.23;3.10;;;12.90;99.90;;;;;;5062369;28;20209;-59
2023/12/10 09:35:08;;;;;;;6.87;2.40;;;12.80;99.90;;;;;;5064856;28;20209;-59
2023/12/10 09:37:37;;;;;;;8.60;2.90;;;12.80;99.90;;;;;;5065464;28;20210;-58
2023/12/10 09:40:04;;;;;;;7.67;2.40;;;12.80;99.90;;;;;;5062623;28;20212;-58
2023/12/10 09:42:30;;;;;;;9.27;2.33;;;12.70;99.90;;;;;;5062032;28;20209;-58
2023/12/10 09:44:57;;;;;;;8.10;2.03;;;12.70;99.90;;;;;;5063218;28;20672;-59
2023/12/10 09:47:25;;;;;;;8.43;2.23;;;12.70;99.90;;;;;;5065484;28;20232;-58
2023/12/10 09:49:55;;;;;;;9.87;2.80;;;12.60;99.90;;;;;;5061890;28;20457;-61
2023/12/10 09:52:23;;;;;;;9.97;2.63;;;12.60;99.90;;;;;;5066727;28;20229;-63
2023/12/10 09:54:53;;;;;;;10.93;2.67;;;12.70;99.90;;;;;;5061648;28;20237;-61
2023/12/10 09:57:20;;;;;;;7.10;2.27;;;12.70;99.90;;;;;;5065026;28;20697;-60
2023/12/10 09:59:47;;;;;;;8.70;2.37;;;12.70;99.90;;;;;;5064551;28;20225;-60
2023/12/10 10:02:15;;;;;;;8.20;2.47;;;12.70;99.90;;;;;;5061340;28;20667;-60
2023/12/10 10:04:43;;;;;;;11.87;3.90;;;12.70;99.90;;;;;;5061350;28;20297;-60
2023/12/10 10:07:10;;;;;;;13.80;4.70;;;12.70;99.90;;;;;;5064277;28;20229;-61
2023/12/10 10:09:38;;;;;;;10.07;2.97;;;12.70;99.90;;;;;;5064622;28;20232;-59
2023/12/10 10:12:06;;;;;;;9.70;2.80;;;12.60;99.90;;;;;;5062228;28;20205;-59
2023/12/10 10:14:33;;;;;;;11.27;3.90;;;12.60;99.90;;;;;;5061678;28;20209;-61
2023/12/10 10:16:59;;;;;;;13.67;2.83;;;12.60;99.90;;;;;;5062451;28;20233;-59
2023/12/10 10:19:26;;;;;;;13.17;4.20;;;12.50;99.90;;;;;;5064478;28;20225;-59
2023/12/10 10:21:54;;;;;;;11.17;4.40;;;12.50;99.90;;;;;;5063404;28;20209;-60
2023/12/10 10:24:21;;;;;;;9.60;2.87;;;12.50;99.90;;;;;;5060936;28;20328;-61
2023/12/10 10:26:49;;;;;;;11.87;4.33;;;14.00;99.90;;;;;;5078553;22;20240;-57
2023/12/10 10:29:16;;;;;;;18.90;5.53;;;12.70;99.90;;;;;;5044053;28;20210;-56
2023/12/10 10:31:44;;;;;;;8.43;3.43;;;12.80;99.90;;;;;;5043998;28;20279;-56
2023/12/10 10:34:11;;;;;;;9.93;2.70;;;13.00;99.90;;;;;;5041028;28;20202;-56
2023/12/10 10:36:38;;;;;;;6.40;2.17;;;13.10;99.90;;;;;;5040782;28;20791;-57
2023/12/10 10:39:07;;;;;;;6.40;2.30;;;13.20;99.90;;;;;;5043064;28;20213;-56
2023/12/10 10:41:33;;;;;;;6.07;2.20;;;13.10;99.90;;;;;;5043893;28;20236;-55
2023/12/10 10:44:01;;;;;;;6.50;1.93;;;13.20;99.90;;;;;;5042563;28;20454;-57
2023/12/10 10:46:28;;;;;;;7.53;2.37;;;13.20;99.90;;;;;;5040641;28;20233;-57
2023/12/10 10:48:56;;;;;;;8.63;2.73;;;13.20;99.90;;;;;;5041153;28;20210;-57
2023/12/10 10:51:25;;;;;;;6.93;1.90;;;13.10;99.90;;;;;;5043985;28;20279;-57
2023/12/10 10:53:55;;;;;;;7.83;2.37;;;13.10;99.90;;;;;;5043162;28;20210;-56
2023/12/10 10:56:22;;;;;;;5.97;2.20;;;13.00;99.90;;;;;;5040673;28;20755;-57
2023/12/10 10:58:49;;;;;;;5.80;1.90;;;13.10;99.90;;;;;;5040536;28;20217;-57
2023/12/10 11:01:40;;;;;;;8.80;2.43;;;13.10;99.90;;;;;;5047916;28;20253;-58
2023/12/10 11:04:06;;;;;;;7.23;2.27;;;13.10;99.90;;;;;;5042549;28;20288;-56
2023/12/10 11:06:36;;;;;;;10.07;2.40;;;13.20;99.90;;;;;;5043257;28;20710;-55
2023/12/10 11:09:02;;;;;;;6.73;1.70;;;13.20;99.90;;;;;;5041513;28;20278;-56
2023/12/10 11:11:29;;;;;;;7.07;2.20;;;13.40;99.90;;;;;;5039867;28;20222;-56
2023/12/10 11:13:56;;;;;;;10.23;2.10;;;13.40;99.90;;;;;;5040766;28;20206;-55
2023/12/10 11:16:23;;;;;;;8.37;2.77;;;13.50;99.90;;;;;;5043630;28;20539;-57
2023/12/10 11:18:56;;;;;;;4.70;1.90;;;13.60;99.90;;;;;;5042928;28;20570;-57
2023/12/10 11:21:23;;;;;;;7.57;2.20;;;13.70;99.90;;;;;;5039784;28;20202;-58
2023/12/10 11:23:50;;;;;;;7.07;2.90;;;13.80;99.90;;;;;;5039884;28;20206;-55
2023/12/10 11:26:17;;;;;;;8.13;2.63;;;13.90;99.90;;;;;;5042956;28;20412;-55
2023/12/10 11:28:44;;;;;;;8.90;2.40;;;13.80;99.90;;;;;;5042848;28;20252;-55
2023/12/10 11:31:11;;;;;;;11.07;2.67;;;13.80;99.90;;;;;;5039912;28;20241;-54
2023/12/10 11:33:40;;;;;;;6.37;2.23;;;13.70;99.90;;;;;;5039883;28;20210;-54
2023/12/10 11:36:09;;;;;;;8.60;2.20;;;13.70;99.90;;;;;;5042002;28;20730;-53
2023/12/10 11:38:36;;;;;;;7.97;2.30;;;13.50;99.90;;;;;;5042866;28;20233;-56
2023/12/10 11:41:03;;;;;;;9.03;2.60;;;13.50;99.90;;;;;;5040792;28;20324;-55
2023/12/10 11:43:30;;;;;;;7.47;2.07;;;13.50;99.90;;;;;;5039199;28;20225;-55
2023/12/10 11:45:57;;;;;;;7.63;2.17;;;13.60;99.90;;;;;;5040522;28;20226;-57
2023/12/10 11:48:23;;;;;;;7.77;2.23;;;13.50;99.90;;;;;;5042481;28;20332;-57
2023/12/10 11:50:51;;;;;;;7.63;2.43;;;13.50;99.90;;;;;;5042601;28;20221;-57
2023/12/10 11:53:19;;;;;;;8.20;2.40;;;13.50;99.90;;;;;;5039186;28;20202;-57
2023/12/10 11:55:48;;;;;;;6.43;2.23;;;13.40;99.90;;;;;;5039167;28;20218;-54
2023/12/10 11:58:15;;;;;;;6.37;1.70;;;13.40;99.90;;;;;;5042746;28;20201;-54
2023/12/10 12:00:56;;;;;;;12.87;4.70;;;13.30;99.90;;;;;;5042960;28;20198;-54
2023/12/10 12:03:24;;;;;;;13.27;7.07;;;13.30;99.90;;;;;;5044089;28;20240;-53
2023/12/10 12:05:51;;;;;;;8.23;2.87;;;13.20;99.90;;;;;;5042589;28;20275;-53
2023/12/10 12:08:19;;;;;;;8.03;2.17;;;13.10;99.90;;;;;;5039037;28;20206;-53
2023/12/10 12:10:46;;;;;;;7.10;2.20;;;12.90;99.90;;;;;;5039440;28;20253;-53
2023/12/10 12:13:13;;;;;;;9.53;2.57;;;12.90;99.90;;;;;;5041788;28;20205;-53
2023/12/10 12:15:45;;;;;;;5.60;2.03;;;12.80;99.90;;;;;;5041776;28;20710;-53
2023/12/10 12:18:12;;;;;;;7.90;2.47;;;12.70;99.90;;;;;;5039508;28;20209;-53
2023/12/10 12:20:39;;;;;;;8.70;2.57;;;12.70;99.90;;;;;;5039410;28;20594;-53
2023/12/10 12:23:06;;;;;;;7.63;2.30;;;12.70;99.90;;;;;;5041042;28;20676;-53
2023/12/10 12:25:37;;;;;;;8.13;3.10;;;12.70;99.90;;;;;;5042543;28;20580;-54
2023/12/10 12:28:05;;;;;;;8.70;2.30;;;12.60;99.90;;;;;;5040398;28;20201;-54
2023/12/10 12:30:32;;;;;;;10.67;2.87;;;12.70;99.90;;;;;;5039181;28;20225;-54
2023/12/10 12:32:58;;;;;;;8.03;2.47;;;12.70;99.90;;;;;;5039786;28;20206;-54
2023/12/10 12:35:26;;;;;;;10.13;2.90;;;12.60;99.90;;;;;;5042334;28;20209;-54
2023/12/10 12:37:52;;;;;;;8.23;2.43;;;12.50;99.90;;;;;;5042865;28;20217;-54
2023/12/10 12:40:20;;;;;;;14.03;3.03;;;12.40;99.90;;;;;;5039047;28;20256;-53